createdAt,value
2019-01-22T00:00:50.473Z,93.70
2019-01-22T00:03:18.946Z,94.40
2019-01-22T00:05:47.422Z,94.00
2019-01-22T00:08:15.682Z,94.60
2019-01-22T00:10:45.115Z,92.70
2019-01-22T00:13:13.229Z,94.90
2019-01-22T00:15:41.450Z,92.60
2019-01-22T00:18:09.517Z,93.10
2019-01-22T00:20:37.604Z,95.40
2019-01-22T00:23:06.306Z,93.50
2019-01-22T00:25:34.976Z,93.20
2019-01-22T00:28:03.525Z,93.40
2019-01-22T00:30:31.511Z,93.00
2019-01-22T00:32:59.512Z,93.00
2019-01-22T00:35:28.105Z,94.10
2019-01-22T00:37:57.001Z,93.90
2019-01-22T00:40:25.541Z,93.90
2019-01-22T00:42:53.978Z,94.40
2019-01-22T00:45:22.012Z,94.30
2019-01-22T00:47:50.373Z,95.20
2019-01-22T00:50:19.188Z,94.50
2019-01-22T00:52:47.443Z,95.20
2019-01-22T00:55:16.454Z,95.10
2019-01-22T00:57:45.484Z,95.90
2019-01-22T01:00:18.065Z,96.40
2019-01-22T01:02:46.434Z,96.60
2019-01-22T01:05:15.059Z,97.30
2019-01-22T01:07:43.557Z,97.10
2019-01-22T01:10:12.788Z,97.40
2019-01-22T01:12:41.213Z,97.30
2019-01-22T01:15:09.936Z,97.50
2019-01-22T01:17:38.255Z,97.90
2019-01-22T01:20:09.593Z,97.80
2019-01-22T01:22:39.135Z,98.00
2019-01-22T01:25:09.207Z,98.30
2019-01-22T01:27:37.750Z,97.50
2019-01-22T01:30:08.061Z,97.50
2019-01-22T01:32:36.047Z,97.60
2019-01-22T01:35:04.339Z,97.50
2019-01-22T01:37:32.787Z,98.00
2019-01-22T01:40:01.104Z,98.50
2019-01-22T01:42:29.833Z,98.70
2019-01-22T01:44:58.333Z,98.40
2019-01-22T01:47:26.721Z,99.00
2019-01-22T01:49:54.901Z,99.40
2019-01-22T01:52:23.293Z,99.30
2019-01-22T01:54:51.623Z,99.20
2019-01-22T01:57:39.183Z,99.50
2019-01-22T02:00:11.370Z,98.90
2019-01-22T02:02:39.520Z,99.00
2019-01-22T02:05:08.642Z,98.60
2019-01-22T02:07:36.589Z,99.40
2019-01-22T02:10:05.661Z,99.00
2019-01-22T02:12:57.647Z,98.80
2019-01-22T02:15:33.198Z,98.80
2019-01-22T02:18:31.444Z,98.70
2019-01-22T02:21:34.629Z,99.00
2019-01-22T02:25:11.798Z,99.30
2019-01-22T02:28:28.129Z,99.00
2019-01-22T02:31:22.249Z,99.20
2019-01-22T02:34:06.399Z,99.10
2019-01-22T02:37:13.467Z,99.10
2019-01-22T02:40:24.184Z,98.90
2019-01-22T02:43:44.668Z,99.20
2019-01-22T02:46:34.714Z,99.00
2019-01-22T02:49:39.707Z,99.10
2019-01-22T02:53:00.705Z,99.50
2019-01-22T02:56:02.078Z,99.60
2019-01-22T02:59:10.619Z,99.70
2019-01-22T03:01:53.778Z,99.70
2019-01-22T03:04:51.099Z,99.90
2019-01-22T03:07:49.742Z,99.90
2019-01-22T03:10:52.021Z,99.90
2019-01-22T03:14:10.544Z,99.90
2019-01-22T03:17:26.490Z,99.90
2019-01-22T03:20:26.201Z,99.90
2019-01-22T03:23:56.669Z,99.90
2019-01-22T03:27:08.682Z,99.90
2019-01-22T03:30:19.432Z,99.90
2019-01-22T03:33:12.635Z,99.90
2019-01-22T03:36:12.727Z,99.90
2019-01-22T03:39:07.229Z,99.90
2019-01-22T03:42:00.953Z,99.90
2019-01-22T03:45:25.622Z,99.90
2019-01-22T03:48:31.204Z,99.90
2019-01-22T03:51:27.878Z,99.90
2019-01-22T03:54:40.467Z,99.90
2019-01-22T03:57:23.285Z,99.90
2019-01-22T03:59:51.972Z,99.90
2019-01-22T04:02:21.286Z,99.90
2019-01-22T04:04:49.450Z,99.90
2019-01-22T04:07:17.391Z,99.90
2019-01-22T04:09:55.065Z,99.90
2019-01-22T04:12:23.391Z,99.90
2019-01-22T04:14:51.586Z,99.90
2019-01-22T04:17:19.540Z,99.90
2019-01-22T04:19:47.702Z,99.90
2019-01-22T04:22:28.929Z,99.90
2019-01-22T04:25:30.760Z,99.90
2019-01-22T04:28:40.616Z,99.90
2019-01-22T04:31:32.830Z,99.90
2019-01-22T04:34:53.379Z,99.90
2019-01-22T04:38:00.811Z,99.90
2019-01-22T04:41:26.119Z,99.90
2019-01-22T04:44:09.241Z,99.90
2019-01-22T04:47:24.950Z,99.90
2019-01-22T04:50:36.641Z,99.90
2019-01-22T04:53:51.613Z,99.90
2019-01-22T04:57:06.469Z,99.90
2019-01-22T05:00:17.674Z,99.90
2019-01-22T05:03:10.814Z,99.90
2019-01-22T05:06:05.297Z,99.90
2019-01-22T05:09:27.154Z,99.90
2019-01-22T05:12:29.914Z,99.90
2019-01-22T05:15:30.985Z,99.90
2019-01-22T05:18:11.531Z,99.90
2019-01-22T05:21:09.689Z,99.90
2019-01-22T05:23:51.042Z,99.90
2019-01-22T05:26:47.318Z,99.90
2019-01-22T05:29:58.730Z,99.90
2019-01-22T05:33:26.979Z,99.90
2019-01-22T05:36:48.849Z,99.90
2019-01-22T05:39:29.079Z,99.90
2019-01-22T05:42:37.548Z,99.90
2019-01-22T05:45:31.303Z,99.90
2019-01-22T05:48:39.172Z,99.90
2019-01-22T05:51:49.505Z,99.90
2019-01-22T05:54:57.328Z,99.90
2019-01-22T05:58:12.652Z,99.90
2019-01-22T06:00:58.564Z,99.90
2019-01-22T06:04:12.992Z,99.90
2019-01-22T06:07:05.878Z,99.90
2019-01-22T06:10:19.774Z,99.90
2019-01-22T06:13:27.153Z,99.90
2019-01-22T06:16:14.893Z,99.90
2019-01-22T06:19:15.256Z,99.90
2019-01-22T06:22:10.038Z,99.90
2019-01-22T06:25:21.770Z,99.90
2019-01-22T06:27:58.314Z,99.90
2019-01-22T06:30:51.349Z,99.90
2019-01-22T06:33:51.687Z,99.90
2019-01-22T06:37:07.977Z,99.90
2019-01-22T06:40:01.795Z,99.90
2019-01-22T06:42:58.195Z,99.90
2019-01-22T06:46:12.059Z,99.90
2019-01-22T06:49:04.066Z,99.90
2019-01-22T06:52:15.461Z,99.90
2019-01-22T06:55:31.150Z,99.90
2019-01-22T06:58:46.877Z,99.90
2019-01-22T07:02:24.163Z,99.90
2019-01-22T07:05:18.413Z,99.90
2019-01-22T07:08:21.967Z,99.90
2019-01-22T07:11:24.971Z,99.90
2019-01-22T07:14:52.381Z,99.90
2019-01-22T07:17:51.781Z,99.90
2019-01-22T07:20:38.929Z,99.90
2019-01-22T07:23:26.945Z,99.90
2019-01-22T07:26:28.847Z,99.90
2019-01-22T07:29:25.989Z,99.90
2019-01-22T07:32:10.044Z,99.90
2019-01-22T07:35:02.453Z,99.90
2019-01-22T07:38:17.335Z,99.60
2019-01-22T07:41:18.141Z,99.40
2019-01-22T07:44:12.627Z,99.80
2019-01-22T07:47:23.742Z,99.00
2019-01-22T07:50:30.207Z,99.30
2019-01-22T07:53:15.864Z,99.30
2019-01-22T07:56:29.279Z,98.40
2019-01-22T07:59:09.018Z,97.20
2019-01-22T08:02:02.580Z,94.10
2019-01-22T08:05:14.809Z,91.50
2019-01-22T08:08:35.497Z,86.40
2019-01-22T08:11:50.586Z,81.90
2019-01-22T08:14:58.579Z,78.90
2019-01-22T08:17:49.156Z,73.80
2019-01-22T08:20:49.735Z,73.50
2019-01-22T08:24:00.616Z,74.90
2019-01-22T08:27:16.821Z,71.90
2019-01-22T08:30:26.363Z,74.60
2019-01-22T08:33:35.952Z,77.80
2019-01-22T08:36:48.612Z,73.00
2019-01-22T08:40:10.045Z,70.70
2019-01-22T08:43:15.869Z,70.80
2019-01-22T08:46:25.369Z,73.00
2019-01-22T08:49:33.073Z,72.50
2019-01-22T08:52:49.064Z,72.90
2019-01-22T08:55:33.830Z,67.20
2019-01-22T08:58:23.395Z,61.30
2019-01-22T09:01:20.344Z,58.50
2019-01-22T09:04:18.704Z,55.80
2019-01-22T09:07:43.686Z,57.40
2019-01-22T09:11:06.166Z,55.40
2019-01-22T09:14:08.855Z,55.20
2019-01-22T09:17:11.429Z,56.30
2019-01-22T09:20:25.899Z,58.20
2019-01-22T09:23:50.459Z,61.70
2019-01-22T09:26:58.473Z,57.90
2019-01-22T09:29:52.427Z,53.30
2019-01-22T09:32:57.809Z,52.90
2019-01-22T09:36:06.953Z,52.80
2019-01-22T09:38:35.202Z,51.40
2019-01-22T09:41:03.892Z,50.10
2019-01-22T09:43:32.625Z,47.90
2019-01-22T09:46:00.660Z,45.90
2019-01-22T09:48:29.114Z,44.90
2019-01-22T09:50:57.503Z,44.50
2019-01-22T09:53:25.984Z,43.50
2019-01-22T09:56:00.345Z,44.20
2019-01-22T09:58:24.100Z,42.40
2019-01-22T10:00:52.261Z,41.70
2019-01-22T10:03:20.780Z,41.60
2019-01-22T10:05:49.270Z,41.10
2019-01-22T10:08:20.078Z,39.50
2019-01-22T10:10:48.421Z,42.50
2019-01-22T10:13:16.525Z,43.00
2019-01-22T10:15:45.275Z,42.10
2019-01-22T10:18:16.754Z,42.90
2019-01-22T10:20:45.082Z,42.50
2019-01-22T10:23:14.082Z,43.80
2019-01-22T10:25:42.096Z,46.30
2019-01-22T10:28:14.142Z,46.70
2019-01-22T10:30:42.299Z,48.00
2019-01-22T10:33:10.387Z,45.80
2019-01-22T10:35:38.614Z,44.60
2019-01-22T10:38:07.065Z,42.70
2019-01-22T10:40:35.124Z,43.30
2019-01-22T10:43:09.187Z,43.50
2019-01-22T10:45:36.759Z,45.30
2019-01-22T10:48:05.475Z,48.80
2019-01-22T10:50:35.900Z,50.10
2019-01-22T10:53:04.563Z,53.30
2019-01-22T10:55:40.325Z,54.00
2019-01-22T10:58:09.185Z,55.20
2019-01-22T11:00:37.843Z,53.50
2019-01-22T11:03:06.460Z,54.10
2019-01-22T11:05:37.152Z,53.50
2019-01-22T11:08:05.497Z,51.80
2019-01-22T11:10:33.607Z,51.40
2019-01-22T11:13:01.561Z,52.30
2019-01-22T11:15:29.427Z,51.90
2019-01-22T11:17:57.829Z,50.40
2019-01-22T11:20:27.033Z,50.20
2019-01-22T11:22:55.544Z,50.20
2019-01-22T11:25:25.633Z,49.20
2019-01-22T11:27:54.664Z,47.40
2019-01-22T11:30:23.479Z,48.10
2019-01-22T11:32:51.626Z,49.20
2019-01-22T11:35:21.754Z,52.10
2019-01-22T11:37:50.362Z,50.10
2019-01-22T11:40:22.428Z,53.70
2019-01-22T11:42:50.432Z,54.00
2019-01-22T11:45:19.461Z,53.90
2019-01-22T11:47:48.722Z,55.10
2019-01-22T11:50:18.153Z,57.20
2019-01-22T11:52:46.625Z,59.00
2019-01-22T11:55:15.076Z,57.70
2019-01-22T11:57:47.089Z,57.60
2019-01-22T12:00:29.786Z,58.50
2019-01-22T12:02:58.047Z,56.70
2019-01-22T12:05:28.349Z,56.50
2019-01-22T12:07:56.062Z,57.60
2019-01-22T12:10:24.201Z,58.40
2019-01-22T12:12:52.390Z,58.80
2019-01-22T12:15:20.892Z,59.80
2019-01-22T12:17:48.777Z,59.50
2019-01-22T12:20:19.683Z,61.10
2019-01-22T12:22:48.641Z,61.50
2019-01-22T12:25:17.734Z,60.20
2019-01-22T12:27:45.833Z,62.40
2019-01-22T12:30:25.812Z,62.40
2019-01-22T12:32:54.172Z,65.70
2019-01-22T12:35:22.580Z,64.00
2019-01-22T12:37:51.008Z,66.30
2019-01-22T12:40:19.537Z,67.70
2019-01-22T12:42:47.500Z,64.00
2019-01-22T12:45:18.622Z,64.60
2019-01-22T12:47:46.692Z,64.80
2019-01-22T12:50:15.905Z,63.00
2019-01-22T12:52:44.857Z,64.50
2019-01-22T12:55:13.051Z,62.20
2019-01-22T12:57:41.048Z,61.70
2019-01-22T13:00:19.153Z,62.50
2019-01-22T13:02:46.930Z,63.40
2019-01-22T13:05:20.365Z,63.00
2019-01-22T13:07:48.398Z,66.00
2019-01-22T13:10:16.511Z,64.00
2019-01-22T13:12:45.378Z,67.30
2019-01-22T13:15:13.239Z,65.80
2019-01-22T13:17:41.660Z,64.30
2019-01-22T13:20:12.819Z,66.10
2019-01-22T13:22:41.142Z,67.30
2019-01-22T13:25:09.683Z,65.50
2019-01-22T13:27:37.444Z,68.50
2019-01-22T13:30:08.138Z,67.00
2019-01-22T13:32:36.167Z,68.90
2019-01-22T13:35:04.634Z,71.10
2019-01-22T13:37:32.357Z,70.50
2019-01-22T13:40:00.966Z,70.20
2019-01-22T13:42:29.774Z,71.10
2019-01-22T13:44:58.612Z,71.70
2019-01-22T13:47:27.035Z,72.80
2019-01-22T13:49:55.174Z,72.40
2019-01-22T13:52:23.588Z,72.40
2019-01-22T13:54:51.563Z,72.40
2019-01-22T13:57:19.681Z,71.60
2019-01-22T13:59:48.307Z,72.10
2019-01-22T14:02:17.307Z,72.00
2019-01-22T14:04:45.677Z,73.00
2019-01-22T14:07:13.688Z,72.20
2019-01-22T14:09:41.893Z,72.80
2019-01-22T14:12:10.245Z,75.40
2019-01-22T14:14:38.103Z,71.70
2019-01-22T14:17:06.047Z,74.30
2019-01-22T14:19:34.616Z,77.10
2019-01-22T14:22:02.298Z,76.30
2019-01-22T14:24:30.397Z,80.30
2019-01-22T14:26:58.908Z,78.60
2019-01-22T14:29:27.590Z,77.70
2019-01-22T14:31:56.899Z,80.30
2019-01-22T14:34:26.010Z,83.40
2019-01-22T14:36:53.746Z,87.40
2019-01-22T14:39:26.663Z,86.20
2019-01-22T14:41:52.411Z,87.60
2019-01-22T14:44:20.863Z,89.70
2019-01-22T14:46:49.113Z,91.10
2019-01-22T14:49:17.754Z,90.10
2019-01-22T14:51:46.573Z,91.50
2019-01-22T14:54:14.789Z,92.60
2019-01-22T14:56:43.356Z,92.30
2019-01-22T14:59:11.749Z,93.30
2019-01-22T15:01:40.158Z,93.10
2019-01-22T15:04:09.222Z,93.70
2019-01-22T15:06:37.626Z,94.20
2019-01-22T15:09:07.462Z,94.80
2019-01-22T15:11:36.291Z,95.10
2019-01-22T15:14:05.391Z,95.30
2019-01-22T15:16:33.964Z,96.10
2019-01-22T15:19:02.849Z,96.60
2019-01-22T15:21:31.259Z,96.70
2019-01-22T15:23:59.659Z,96.90
2019-01-22T15:26:28.354Z,98.10
2019-01-22T15:28:56.716Z,97.90
2019-01-22T15:31:25.182Z,98.00
2019-01-22T15:33:54.119Z,97.90
2019-01-22T15:36:22.160Z,98.40
2019-01-22T15:38:50.804Z,98.80
2019-01-22T15:41:18.930Z,99.00
2019-01-22T15:43:47.639Z,98.60
2019-01-22T15:46:16.392Z,98.70
2019-01-22T15:48:44.606Z,99.00
2019-01-22T15:51:13.056Z,98.90
2019-01-22T15:53:41.829Z,99.50
2019-01-22T15:56:10.438Z,99.50
2019-01-22T15:58:38.895Z,99.90
2019-01-22T16:01:07.197Z,99.90
2019-01-22T16:03:35.437Z,99.90
2019-01-22T16:06:05.019Z,99.80
2019-01-22T16:08:33.263Z,99.90
2019-01-22T16:11:01.931Z,99.90
2019-01-22T16:13:31.267Z,99.90
2019-01-22T16:16:00.193Z,99.90
2019-01-22T16:18:28.441Z,99.90
2019-01-22T16:20:56.349Z,99.90
2019-01-22T16:23:25.268Z,99.90
2019-01-22T16:25:53.801Z,99.90
2019-01-22T16:28:21.810Z,99.90
2019-01-22T16:30:50.481Z,99.90
2019-01-22T16:33:19.406Z,99.90
2019-01-22T16:35:47.759Z,99.90
2019-01-22T16:38:17.215Z,99.90
2019-01-22T16:40:46.490Z,99.90
2019-01-22T16:43:14.539Z,99.90
2019-01-22T16:45:43.369Z,99.90
2019-01-22T16:48:11.808Z,99.90
2019-01-22T16:50:41.265Z,99.90
2019-01-22T16:53:19.909Z,99.90
2019-01-22T16:55:49.304Z,99.90
2019-01-22T16:58:24.516Z,99.90
2019-01-22T17:00:53.137Z,99.90
2019-01-22T17:03:21.465Z,99.90
2019-01-22T17:05:49.712Z,99.90
2019-01-22T17:08:21.385Z,99.90
2019-01-22T17:10:49.563Z,99.90
2019-01-22T17:13:19.644Z,99.90
2019-01-22T17:15:48.020Z,99.90
2019-01-22T17:18:16.798Z,99.90
2019-01-22T17:20:47.945Z,99.90
2019-01-22T17:23:16.612Z,99.90
2019-01-22T17:25:45.669Z,99.90
2019-01-22T17:28:13.892Z,99.90
2019-01-22T17:30:43.459Z,99.90
2019-01-22T17:33:16.600Z,99.90
2019-01-22T17:35:47.236Z,99.90
2019-01-22T17:38:16.728Z,99.90
2019-01-22T17:40:45.263Z,99.90
2019-01-22T17:43:13.552Z,99.90
2019-01-22T17:45:42.045Z,99.90
2019-01-22T17:48:12.694Z,99.90
2019-01-22T17:50:41.074Z,99.90
2019-01-22T17:53:09.463Z,99.90
2019-01-22T17:55:37.724Z,99.90
2019-01-22T17:58:07.399Z,99.90
2019-01-22T18:00:36.843Z,99.90
2019-01-22T18:03:05.362Z,99.90
2019-01-22T18:05:33.798Z,99.90
2019-01-22T18:08:01.964Z,99.90
2019-01-22T18:10:30.327Z,99.90
2019-01-22T18:12:58.779Z,99.90
2019-01-22T18:15:27.405Z,99.90
2019-01-22T18:17:56.077Z,99.90
2019-01-22T18:20:23.934Z,99.90
2019-01-22T18:22:52.432Z,99.90
2019-01-22T18:25:20.694Z,99.90
2019-01-22T18:27:48.585Z,99.90
2019-01-22T18:30:18.960Z,99.90
2019-01-22T18:32:47.811Z,99.90
2019-01-22T18:35:23.140Z,99.90
2019-01-22T18:37:50.919Z,99.90
2019-01-22T18:40:19.497Z,99.90
2019-01-22T18:42:47.464Z,99.90
2019-01-22T18:45:15.683Z,99.90
2019-01-22T18:47:43.664Z,99.90
2019-01-22T18:50:18.073Z,99.90
2019-01-22T18:52:45.943Z,99.90
2019-01-22T18:55:14.173Z,99.90
2019-01-22T18:57:42.021Z,99.90
2019-01-22T19:00:13.068Z,99.90
2019-01-22T19:02:44.333Z,99.90
2019-01-22T19:05:12.618Z,99.90
2019-01-22T19:07:40.391Z,99.90
2019-01-22T19:10:11.318Z,99.90
2019-01-22T19:12:40.223Z,99.90
2019-01-22T19:15:11.498Z,99.90
2019-01-22T19:17:40.914Z,99.90
2019-01-22T19:20:09.811Z,99.90
2019-01-22T19:22:38.317Z,99.90
2019-01-22T19:25:09.613Z,99.90
2019-01-22T19:27:37.641Z,99.90
2019-01-22T19:30:08.337Z,99.90
2019-01-22T19:32:39.449Z,99.90
2019-01-22T19:35:08.181Z,99.90
2019-01-22T19:37:36.715Z,99.90
2019-01-22T19:40:07.013Z,99.90
2019-01-22T19:42:35.545Z,99.90
2019-01-22T19:45:07.576Z,99.90
2019-01-22T19:47:35.966Z,99.90
2019-01-22T19:50:08.549Z,99.90
2019-01-22T19:52:36.321Z,99.90
2019-01-22T19:55:04.783Z,99.90
2019-01-22T19:57:33.539Z,99.90
2019-01-22T20:00:02.534Z,99.90
2019-01-22T20:02:30.743Z,99.90
2019-01-22T20:04:59.482Z,99.90
2019-01-22T20:07:28.552Z,99.90
2019-01-22T20:09:57.737Z,99.90
2019-01-22T20:12:30.183Z,99.90
2019-01-22T20:14:59.503Z,99.90
2019-01-22T20:17:31.220Z,99.90
2019-01-22T20:20:01.959Z,99.90
2019-01-22T20:22:30.498Z,99.90
2019-01-22T20:24:59.519Z,99.90
2019-01-22T20:27:29.449Z,99.90
2019-01-22T20:29:58.769Z,99.90
2019-01-22T20:32:29.482Z,99.90
2019-01-22T20:34:58.488Z,99.90
2019-01-22T20:37:27.370Z,99.90
2019-01-22T20:39:55.246Z,99.90
2019-01-22T20:42:22.982Z,99.90
2019-01-22T20:44:50.721Z,99.90
2019-01-22T20:47:18.940Z,99.90
2019-01-22T20:49:47.599Z,99.90
2019-01-22T20:52:16.240Z,99.90
2019-01-22T20:54:45.652Z,99.90
2019-01-22T20:57:13.444Z,99.90
2019-01-22T20:59:42.231Z,99.90
2019-01-22T21:02:09.868Z,99.90
2019-01-22T21:04:42.221Z,99.90
2019-01-22T21:07:11.719Z,99.90
2019-01-22T21:09:39.982Z,99.90
2019-01-22T21:12:08.535Z,99.90
2019-01-22T21:14:36.520Z,99.90
2019-01-22T21:17:04.265Z,99.90
2019-01-22T21:19:34.524Z,99.90
2019-01-22T21:22:02.768Z,99.90
2019-01-22T21:24:30.734Z,99.90
2019-01-22T21:26:59.931Z,99.90
2019-01-22T21:29:28.064Z,99.90
2019-01-22T21:31:56.403Z,99.90
2019-01-22T21:34:24.582Z,99.90
2019-01-22T21:36:53.442Z,99.90
2019-01-22T21:39:21.834Z,99.90
2019-01-22T21:41:50.225Z,99.90
2019-01-22T21:44:18.375Z,99.90
2019-01-22T21:46:46.382Z,99.90
2019-01-22T21:49:16.769Z,99.90
2019-01-22T21:51:45.244Z,99.90
2019-01-22T21:54:13.694Z,99.90
2019-01-22T21:56:42.195Z,99.90
2019-01-22T21:59:10.063Z,99.90
2019-01-22T22:01:38.293Z,99.90
2019-01-22T22:04:06.590Z,99.90
2019-01-22T22:06:34.883Z,99.90
2019-01-22T22:09:04.732Z,99.90
2019-01-22T22:11:32.588Z,99.90
2019-01-22T22:14:00.679Z,99.90
2019-01-22T22:16:28.884Z,99.90
2019-01-22T22:18:58.378Z,99.90
2019-01-22T22:21:26.705Z,99.90
2019-01-22T22:23:55.781Z,99.90
2019-01-22T22:26:24.108Z,99.90
2019-01-22T22:28:53.203Z,99.90
2019-01-22T22:31:21.489Z,99.90
2019-01-22T22:33:49.547Z,99.90
2019-01-22T22:36:17.714Z,99.90
2019-01-22T22:38:45.721Z,99.90
2019-01-22T22:41:13.768Z,99.90
2019-01-22T22:43:42.459Z,99.90
2019-01-22T22:46:10.353Z,99.90
2019-01-22T22:48:38.656Z,99.90
2019-01-22T22:51:06.649Z,99.90
2019-01-22T22:53:34.759Z,99.90
2019-01-22T22:56:02.907Z,99.90
2019-01-22T22:58:30.893Z,99.90
2019-01-22T23:01:29.018Z,99.90
2019-01-22T23:03:57.205Z,99.90
2019-01-22T23:06:25.508Z,99.90
2019-01-22T23:08:54.253Z,99.90
2019-01-22T23:11:22.445Z,99.90
2019-01-22T23:13:50.997Z,99.90
2019-01-22T23:16:19.016Z,99.90
2019-01-22T23:18:47.377Z,99.90
2019-01-22T23:21:15.757Z,99.90
2019-01-22T23:23:44.046Z,99.90
2019-01-22T23:26:11.992Z,99.90
2019-01-22T23:28:40.129Z,99.90
2019-01-22T23:31:08.860Z,99.90
2019-01-22T23:33:37.353Z,99.90
2019-01-22T23:36:06.029Z,99.90
2019-01-22T23:38:34.265Z,99.90
2019-01-22T23:41:03.079Z,99.90
2019-01-22T23:43:31.168Z,99.90
2019-01-22T23:45:59.564Z,99.90
2019-01-22T23:48:27.709Z,99.90
2019-01-22T23:50:55.694Z,99.90
2019-01-22T23:53:23.896Z,99.90
2019-01-22T23:55:51.850Z,99.90
2019-01-22T23:58:20.064Z,99.90
